KQBF/QBF METAR and TAF weather

Enter ICAO airport designator
Station Type Date Time Source
KQBF METAR 2019/02/16 16:56 UTC NOAA

KQBF 161656Z AUTO 04004KT 9999 CLR 32/M08 A2989 RMK AO2 SLP078 WND DATA ESTMD T03231076


Station Type Date Time Source
KQBF Decoded METAR 2019/02/16 16:56 UTC NOAA

Station name not available
Feb 16, 2019 - 11:56 AM EST / 2019.02.16 1656 UTC
Wind: from the NE (040 degrees) at 5 MPH (4 KT):0
Visibility: greater than 7 mile(s):0
Sky conditions: clear
Temperature: 90.1 F (32.3 C)
Dew Point: 18.3 F (-7.6 C)
Relative Humidity: 7%
Pressure (altimeter): 29.89 in. Hg (1012 hPa)
ob: KQBF 161656Z AUTO 04004KT 9999 CLR 32/M08 A2989 RMK AO2 SLP078 WND DATA ESTMD T03231076
cycle: 17

Station Type Date Time Source
KQBF TAF 2009/08/24 17:21 UTC NOAA

TAF
AMD KQBF 241721Z 241313 06010G20KT 9999 FEW025 SCT160 BKN230 QNH2915INS
BECMG 2223 100020G25KT 9000 -SHRA SCT009 BKN025 OVC035 610505 QNH2910INS
TEMPO 0209 10025G35KT BKN010
BECMG 1213 09020G25KT 9000 -SHRA SCT015 BKN035 OVC050 610606 T11/15Z T10/00Z
AMD 241744 LIMITED METWATCH 2417 TIL 2507


Example: see airport list